Погода Торгонщинана 2 недели

Могилёвская область, Белоруссия

22 мая-04 июня
  • 22мая
    Сегодня
    +12°
    +23°
    Небольшая облачность, ливень
    ВремяПогодаТемператураВлажностьДавлениеВетер, м/сВероятность осадков
    00:00Облачно с прояснениями+15°C82 %746 мм3.4 м/с2 %
    03:00Облачно с прояснениями+14°C85 %746 мм3.0 м/с4 %
    06:00Облачно с прояснениями+13°C88 %746 мм2.8 м/с6 %
    09:00Практически безоблачно+18°C75 %747 мм2.7 м/с6 %
    12:00Небольшая облачность+23°C59 %747 мм3.1 м/с25 %
    15:00Небольшая облачность, ливень+20°C75 %747 мм2.4 м/с50 %
    18:00Облачно с прояснениями+22°C74 %747 мм3.2 м/с41 %
    21:00Облачно с прояснениями+17°C87 %747 мм2.9 м/с7 %
  • 23мая
    Четверг
    +11°
    +23°
    Ясно и безоблачно
    ВремяПогодаТемператураВлажностьДавлениеВетер, м/сВероятность осадков
    00:00Облачно с прояснениями+15°C93 %748 мм3.2 м/с1 %
    03:00Ясно и безоблачно+14°C95 %748 мм3.6 м/с1 %
    06:00Ясно и безоблачно+13°C95 %749 мм4.5 м/с1 %
    09:00Ясно и безоблачно+18°C73 %750 мм5.0 м/с2 %
    12:00Практически безоблачно+21°C61 %750 мм5.8 м/с15 %
    15:00Ясно и безоблачно+22°C52 %750 мм5.8 м/с20 %
    18:00Практически безоблачно+22°C53 %750 мм5.7 м/с23 %
    21:00Ясно и безоблачно+18°C60 %751 мм4.7 м/с5 %
  • 24мая
    Пятница
    +10°
    +22°
    Ясно и безоблачно
    ВремяПогодаТемператураВлажностьДавлениеВетер, м/сВероятность осадков
    00:00Ясно и безоблачно+16°C63 %752 мм5.4 м/с2 %
    03:00Ясно и безоблачно+13°C64 %753 мм4.8 м/с2 %
    06:00Ясно и безоблачно+12°C65 %753 мм4.8 м/с2 %
    09:00Ясно и безоблачно+16°C58 %754 мм4.9 м/с2 %
    12:00Ясно и безоблачно+20°C51 %754 мм4.9 м/с2 %
    15:00Ясно и безоблачно+22°C48 %754 мм4.8 м/с3 %
    18:00Ясно и безоблачно+21°C47 %753 мм4.6 м/с5 %
    21:00Ясно и безоблачно+17°C63 %753 мм3.2 м/с3 %
  • 25мая
    Суббота
    +10°
    +24°
    Ясно и безоблачно
    ВремяПогодаТемператураВлажностьДавлениеВетер, м/сВероятность осадков
    00:00Ясно и безоблачно+14°C67 %754 мм3.6 м/с2 %
    03:00Ясно и безоблачно+12°C72 %753 мм3.3 м/с2 %
    06:00Ясно и безоблачно+11°C75 %753 мм3.4 м/с2 %
    09:00Ясно и безоблачно+17°C62 %753 мм3.1 м/с4 %
    12:00Ясно и безоблачно+22°C52 %753 мм3.0 м/с2 %
    15:00Ясно и безоблачно+23°C45 %752 мм3.2 м/с3 %
    18:00Небольшая облачность+24°C45 %751 мм2.7 м/с7 %
    21:00Небольшая облачность+18°C66 %751 мм2.5 м/с4 %
  • 26мая
    Воскресенье
    +13°
    +24°
    Ясно и безоблачно
    ВремяПогодаТемператураВлажностьДавлениеВетер, м/сВероятность осадков
    00:00Ясно и безоблачно+15°C71 %751 мм2.4 м/с3 %
    03:00Ясно и безоблачно+12°C77 %751 мм2.2 м/с8 %
    06:00Ясно и безоблачно+12°C73 %751 мм1.9 м/с12 %
    09:00Ясно и безоблачно+19°C52 %751 мм1.2 м/с5 %
    12:00Ясно и безоблачно+22°C43 %752 мм2.3 м/с9 %
    15:00Ясно и безоблачно+24°C43 %751 мм1.5 м/с12 %
    18:00Ясно и безоблачно+24°C43 %750 мм1.3 м/с11 %
    21:00Ясно и безоблачно+18°C70 %750 мм2.2 м/с5 %
Мы используем cookies
Соглашаюсь